createdAt,value
2023-01-08T00:00:08.412Z,0.80
2023-01-08T00:02:35.108Z,1.10
2023-01-08T00:05:03.395Z,1.00
2023-01-08T00:07:30.184Z,1.20
2023-01-08T00:09:56.949Z,0.85
2023-01-08T00:12:23.687Z,0.82
2023-01-08T00:14:50.502Z,1.00
2023-01-08T00:17:17.285Z,1.55
2023-01-08T00:19:44.298Z,1.40
2023-01-08T00:22:13.634Z,1.00
2023-01-08T00:24:40.733Z,0.85
2023-01-08T00:27:07.549Z,1.00
2023-01-08T00:29:34.243Z,1.00
2023-01-08T00:32:00.987Z,1.00
2023-01-08T00:34:27.700Z,1.13
2023-01-08T00:36:54.415Z,1.10
2023-01-08T00:39:22.852Z,1.20
2023-01-08T00:41:49.732Z,1.10
2023-01-08T00:44:16.456Z,0.95
2023-01-08T00:46:43.137Z,1.17
2023-01-08T00:49:10.020Z,0.93
2023-01-08T00:51:36.664Z,1.23
2023-01-08T00:54:03.725Z,1.25
2023-01-08T00:56:31.835Z,1.02
2023-01-08T00:58:58.540Z,1.00
2023-01-08T01:01:25.397Z,1.23
2023-01-08T01:03:55.575Z,0.90
2023-01-08T01:06:22.437Z,1.00
2023-01-08T01:08:49.204Z,0.77
2023-01-08T01:11:19.294Z,1.02
2023-01-08T01:13:47.996Z,0.65
2023-01-08T01:16:14.872Z,0.90
2023-01-08T01:18:41.731Z,0.95
2023-01-08T01:21:12.691Z,1.20
2023-01-08T01:23:41.215Z,1.13
2023-01-08T01:26:15.172Z,1.05
2023-01-08T01:28:41.940Z,1.10
2023-01-08T01:31:12.087Z,1.00
2023-01-08T01:33:38.980Z,0.93
2023-01-08T01:36:06.385Z,1.05
2023-01-08T01:38:33.367Z,1.00
2023-01-08T01:41:00.215Z,1.08
2023-01-08T01:43:38.710Z,1.35
2023-01-08T01:46:13.976Z,1.00
2023-01-08T01:48:42.401Z,0.98
2023-01-08T01:51:09.064Z,1.00
2023-01-08T01:53:37.459Z,1.02
2023-01-08T01:56:04.830Z,1.20
2023-01-08T01:58:32.476Z,1.15
2023-01-08T02:01:02.744Z,1.23
2023-01-08T02:03:33.846Z,1.02
2023-01-08T02:06:10.921Z,1.02
2023-01-08T02:08:46.581Z,1.08
2023-01-08T02:11:21.494Z,1.48
2023-01-08T02:13:54.441Z,0.90
2023-01-08T02:16:30.212Z,0.70
2023-01-08T02:19:00.541Z,0.98
2023-01-08T02:21:39.748Z,0.95
2023-01-08T02:24:13.601Z,1.05
2023-01-08T02:26:47.126Z,1.20
2023-01-08T02:29:16.742Z,0.90
2023-01-08T02:31:44.275Z,0.80
2023-01-08T02:34:12.625Z,1.10
2023-01-08T02:36:41.389Z,0.90
2023-01-08T02:39:19.692Z,1.00
2023-01-08T02:42:04.629Z,1.30
2023-01-08T02:44:41.564Z,0.95
2023-01-08T02:47:17.102Z,1.30
2023-01-08T02:49:46.533Z,1.17
2023-01-08T02:52:15.365Z,1.13
2023-01-08T02:54:43.959Z,0.90
2023-01-08T02:57:15.062Z,1.13
2023-01-08T02:59:45.297Z,0.80
2023-01-08T03:02:12.660Z,0.80
2023-01-08T03:04:46.748Z,0.50
2023-01-08T03:07:20.703Z,0.68
2023-01-08T03:09:47.677Z,0.50
2023-01-08T03:12:23.200Z,0.40
2023-01-08T03:14:55.929Z,0.65
2023-01-08T03:17:27.717Z,0.82
2023-01-08T03:19:56.475Z,0.60
2023-01-08T03:22:24.188Z,0.43
2023-01-08T03:24:54.056Z,0.30
2023-01-08T03:27:28.507Z,0.30
2023-01-08T03:29:58.293Z,0.20
2023-01-08T03:32:27.577Z,0.30
2023-01-08T03:34:57.087Z,0.30
2023-01-08T03:37:29.654Z,0.43
2023-01-08T03:40:00.354Z,0.32
2023-01-08T03:42:31.366Z,0.28
2023-01-08T03:44:58.124Z,0.20
2023-01-08T03:47:29.278Z,0.28
2023-01-08T03:49:57.799Z,0.17
2023-01-08T03:52:26.188Z,0.38
2023-01-08T03:54:53.161Z,0.20
2023-01-08T03:57:20.243Z,0.20
2023-01-08T03:59:48.595Z,0.40
2023-01-08T04:02:15.532Z,0.17
2023-01-08T04:04:43.031Z,0.30
2023-01-08T04:07:11.536Z,0.10
2023-01-08T04:09:38.228Z,0.20
2023-01-08T04:12:05.312Z,0.17
2023-01-08T04:14:32.047Z,0.30
2023-01-08T04:17:00.092Z,0.15
2023-01-08T04:19:26.825Z,0.20
2023-01-08T04:21:53.926Z,0.20
2023-01-08T04:24:20.831Z,0.30
2023-01-08T04:26:48.015Z,0.22
2023-01-08T04:29:15.057Z,0.20
2023-01-08T04:31:41.863Z,0.30
2023-01-08T04:34:10.124Z,0.30
2023-01-08T04:36:36.936Z,0.28
2023-01-08T04:39:03.944Z,0.05
2023-01-08T04:41:30.677Z,0.20
2023-01-08T04:43:57.458Z,0.20
2023-01-08T04:46:24.307Z,0.13
2023-01-08T04:48:51.211Z,0.30
2023-01-08T04:51:19.458Z,0.20
2023-01-08T04:53:46.361Z,0.30
2023-01-08T04:56:13.439Z,0.20
2023-01-08T04:58:40.665Z,0.20
2023-01-08T05:01:12.874Z,0.40
2023-01-08T05:03:39.890Z,0.20
2023-01-08T05:06:07.458Z,0.30
2023-01-08T05:08:35.566Z,0.20
2023-01-08T05:11:02.586Z,0.20
2023-01-08T05:13:29.762Z,0.20
2023-01-08T05:15:59.440Z,0.30
2023-01-08T05:18:26.853Z,0.17
2023-01-08T05:20:53.520Z,0.10
2023-01-08T05:23:20.296Z,0.10
2023-01-08T05:25:48.303Z,0.20
2023-01-08T05:28:15.073Z,0.10
2023-01-08T05:30:41.751Z,0.30
2023-01-08T05:33:08.524Z,0.17
2023-01-08T05:35:35.228Z,0.20
2023-01-08T05:38:01.945Z,0.20
2023-01-08T05:40:28.654Z,0.10
2023-01-08T05:42:59.187Z,0.40
2023-01-08T05:45:25.908Z,0.35
2023-01-08T05:47:52.609Z,0.28
2023-01-08T05:50:19.284Z,0.10
2023-01-08T05:52:51.525Z,0.40
2023-01-08T05:55:19.136Z,0.40
2023-01-08T05:57:45.829Z,0.50
2023-01-08T06:00:15.485Z,0.28
2023-01-08T06:02:46.423Z,0.30
2023-01-08T06:05:13.297Z,0.30
2023-01-08T06:07:40.105Z,0.40
2023-01-08T06:10:08.216Z,0.40
2023-01-08T06:12:34.990Z,0.40
2023-01-08T06:15:01.775Z,0.38
2023-01-08T06:17:29.797Z,0.30
2023-01-08T06:19:56.564Z,0.45
2023-01-08T06:22:23.482Z,0.40
2023-01-08T06:24:50.283Z,0.30
2023-01-08T06:27:19.498Z,0.30
2023-01-08T06:29:46.186Z,0.30
2023-01-08T06:32:12.932Z,0.20
2023-01-08T06:34:42.085Z,0.45
2023-01-08T06:37:08.791Z,0.20
2023-01-08T06:39:35.556Z,0.20
2023-01-08T06:42:02.432Z,0.20
2023-01-08T06:44:29.089Z,0.20
2023-01-08T06:46:55.986Z,0.15
2023-01-08T06:49:22.798Z,0.28
2023-01-08T06:51:50.883Z,0.28
2023-01-08T06:54:17.735Z,0.30
2023-01-08T06:56:53.265Z,0.40
2023-01-08T06:59:20.643Z,0.30
2023-01-08T07:01:47.641Z,0.50
2023-01-08T07:04:14.428Z,0.30
2023-01-08T07:06:41.153Z,0.60
2023-01-08T07:09:12.345Z,0.32
2023-01-08T07:11:39.087Z,0.40
2023-01-08T07:14:05.814Z,0.30
2023-01-08T07:16:32.847Z,0.30
2023-01-08T07:18:59.574Z,0.30
2023-01-08T07:21:26.361Z,0.30
2023-01-08T07:23:53.074Z,0.30
2023-01-08T07:26:21.186Z,0.30
2023-01-08T07:28:47.888Z,0.30
2023-01-08T07:31:14.901Z,0.40
2023-01-08T07:33:41.729Z,0.52
2023-01-08T07:36:09.121Z,0.70
2023-01-08T07:38:36.077Z,0.65
2023-01-08T07:41:02.990Z,0.40
2023-01-08T07:43:31.291Z,0.85
2023-01-08T07:45:58.133Z,0.50
2023-01-08T07:48:25.016Z,0.40
2023-01-08T07:50:51.791Z,0.60
2023-01-08T07:53:18.534Z,0.40
2023-01-08T07:55:45.795Z,0.30
2023-01-08T07:58:14.802Z,0.22
2023-01-08T08:00:43.097Z,0.55
2023-01-08T08:03:11.896Z,0.40
2023-01-08T08:05:39.408Z,0.40
2023-01-08T08:08:09.951Z,0.20
2023-01-08T08:10:36.784Z,0.30
2023-01-08T08:13:03.878Z,0.25
2023-01-08T08:15:31.018Z,0.25
2023-01-08T08:17:59.701Z,0.43
2023-01-08T08:20:26.809Z,0.40
2023-01-08T08:23:00.753Z,0.30
2023-01-08T08:25:28.005Z,0.50
2023-01-08T08:27:57.184Z,0.60
2023-01-08T08:30:24.604Z,0.40
2023-01-08T08:32:51.271Z,0.30
2023-01-08T08:35:19.851Z,0.30
2023-01-08T08:37:46.634Z,1.20
2023-01-08T08:40:14.718Z,0.38
2023-01-08T08:42:41.566Z,0.30
2023-01-08T08:45:08.769Z,0.55
2023-01-08T08:47:35.591Z,0.45
2023-01-08T08:50:02.363Z,0.40
2023-01-08T08:52:31.370Z,0.47
2023-01-08T08:54:58.154Z,0.35
2023-01-08T08:57:25.282Z,0.70
2023-01-08T08:59:52.027Z,0.50
2023-01-08T09:02:18.949Z,0.30
2023-01-08T09:04:45.786Z,0.40
2023-01-08T09:07:12.584Z,0.50
2023-01-08T09:09:40.629Z,0.20
2023-01-08T09:12:07.791Z,0.93
2023-01-08T09:14:34.524Z,0.30
2023-01-08T09:17:01.586Z,0.65
2023-01-08T09:19:28.311Z,0.30
2023-01-08T09:21:55.001Z,0.43
2023-01-08T09:24:21.968Z,0.10
2023-01-08T09:26:52.504Z,0.65
2023-01-08T09:29:19.275Z,0.32
2023-01-08T09:31:46.793Z,0.20
2023-01-08T09:34:13.556Z,0.50
2023-01-08T09:36:40.201Z,0.60
2023-01-08T09:39:07.110Z,0.40
2023-01-08T09:41:38.489Z,0.40
2023-01-08T09:44:07.291Z,0.82
2023-01-08T09:46:34.889Z,0.63
2023-01-08T09:49:06.892Z,0.50
2023-01-08T09:51:35.355Z,0.25
2023-01-08T09:54:02.788Z,0.40
2023-01-08T09:56:30.174Z,0.40
2023-01-08T09:58:59.850Z,0.57
2023-01-08T10:01:29.567Z,0.80
2023-01-08T10:04:04.443Z,0.98
2023-01-08T10:06:31.489Z,0.40
2023-01-08T10:08:58.922Z,0.35
2023-01-08T10:11:30.936Z,0.30
2023-01-08T10:13:57.826Z,0.50
2023-01-08T10:16:30.584Z,0.40
2023-01-08T10:18:58.591Z,0.60
2023-01-08T10:21:29.796Z,0.70
2023-01-08T10:23:56.843Z,0.30
2023-01-08T10:26:31.361Z,0.45
2023-01-08T10:29:17.744Z,0.60
2023-01-08T10:31:51.658Z,0.60
2023-01-08T10:34:26.800Z,0.50
2023-01-08T10:36:55.756Z,0.70
2023-01-08T10:39:26.435Z,0.50
2023-01-08T10:41:57.750Z,0.60
2023-01-08T10:44:26.381Z,0.88
2023-01-08T10:46:58.748Z,0.60
2023-01-08T10:49:32.147Z,0.60
2023-01-08T10:51:59.782Z,0.80
2023-01-08T10:54:35.212Z,0.85
2023-01-08T10:57:02.849Z,0.82
2023-01-08T10:59:30.853Z,0.57
2023-01-08T11:01:59.817Z,0.50
2023-01-08T11:04:32.796Z,0.90
2023-01-08T11:07:02.565Z,0.70
2023-01-08T11:09:32.718Z,0.45
2023-01-08T11:12:00.589Z,1.25
2023-01-08T11:14:30.261Z,0.98
2023-01-08T11:16:59.254Z,0.60
2023-01-08T11:19:28.334Z,0.47
2023-01-08T11:21:57.051Z,0.70
2023-01-08T11:24:26.879Z,0.90
2023-01-08T11:26:57.760Z,0.60
2023-01-08T11:29:32.180Z,0.40
2023-01-08T11:32:16.497Z,0.40
2023-01-08T11:34:54.476Z,0.70
2023-01-08T11:37:24.649Z,0.68
2023-01-08T11:39:52.418Z,0.45
2023-01-08T11:42:38.934Z,0.60
2023-01-08T11:45:21.740Z,0.52
2023-01-08T11:48:28.201Z,0.43
2023-01-08T11:51:16.062Z,0.32
2023-01-08T11:53:48.348Z,0.40
2023-01-08T11:56:21.368Z,0.57
2023-01-08T11:59:06.333Z,0.43
2023-01-08T12:01:48.266Z,0.55
2023-01-08T12:04:42.381Z,0.50
2023-01-08T12:07:16.913Z,0.22
2023-01-08T12:09:46.341Z,0.20
2023-01-08T12:12:31.585Z,0.20
2023-01-08T12:15:12.374Z,0.25
2023-01-08T12:18:03.209Z,0.20
2023-01-08T12:20:38.043Z,0.28
2023-01-08T12:23:22.847Z,0.15
2023-01-08T12:26:03.009Z,0.28
2023-01-08T12:28:48.452Z,0.30
2023-01-08T12:31:27.553Z,0.63
2023-01-08T12:33:57.152Z,0.10
2023-01-08T12:36:30.751Z,0.30
2023-01-08T12:39:03.420Z,0.40
2023-01-08T12:41:34.091Z,0.20
2023-01-08T12:44:03.449Z,0.30
2023-01-08T12:46:33.487Z,0.00
2023-01-08T12:49:04.758Z,0.30
2023-01-08T12:51:38.622Z,0.40
2023-01-08T12:54:15.300Z,0.30
2023-01-08T12:56:50.504Z,0.20
2023-01-08T12:59:30.912Z,0.20
2023-01-08T13:02:04.914Z,0.32
2023-01-08T13:04:40.313Z,0.22
2023-01-08T13:07:17.870Z,0.20
2023-01-08T13:09:45.382Z,0.43
2023-01-08T13:12:14.964Z,0.10
2023-01-08T13:14:44.704Z,0.50
2023-01-08T13:17:18.839Z,0.32
2023-01-08T13:19:52.504Z,0.40
2023-01-08T13:22:27.233Z,0.30
2023-01-08T13:25:09.819Z,0.40
2023-01-08T13:27:36.638Z,0.20
2023-01-08T13:30:35.735Z,0.30
2023-01-08T13:33:02.732Z,0.30
2023-01-08T13:35:31.541Z,1.30
2023-01-08T13:38:17.437Z,0.30
2023-01-08T13:40:56.440Z,0.30
2023-01-08T13:43:27.750Z,0.30
2023-01-08T13:46:09.023Z,0.20
2023-01-08T13:48:39.399Z,0.30
2023-01-08T13:51:06.914Z,0.38
2023-01-08T13:53:35.444Z,0.20
2023-01-08T13:56:06.922Z,0.40
2023-01-08T13:58:37.972Z,0.50
2023-01-08T14:01:06.663Z,0.52
2023-01-08T14:03:35.852Z,0.35
2023-01-08T14:06:08.608Z,0.35
2023-01-08T14:08:36.941Z,0.60
2023-01-08T14:11:05.150Z,0.50
2023-01-08T14:13:35.617Z,0.30
2023-01-08T14:16:05.616Z,0.38
2023-01-08T14:18:32.851Z,0.28
2023-01-08T14:20:59.617Z,0.32
2023-01-08T14:23:30.756Z,0.50
2023-01-08T14:26:02.765Z,0.30
2023-01-08T14:28:29.520Z,0.20
2023-01-08T14:30:57.414Z,0.50
2023-01-08T14:33:28.870Z,0.40
2023-01-08T14:35:56.600Z,0.35
2023-01-08T14:38:23.550Z,0.30
2023-01-08T14:40:58.296Z,0.30
2023-01-08T14:43:26.705Z,0.20
2023-01-08T14:45:55.099Z,0.43
2023-01-08T14:48:25.564Z,1.02
2023-01-08T14:51:04.677Z,0.30
2023-01-08T14:53:35.484Z,0.65
2023-01-08T14:56:04.596Z,0.30
2023-01-08T14:58:38.604Z,0.40
2023-01-08T15:01:09.721Z,0.38
2023-01-08T15:03:38.111Z,0.10
2023-01-08T15:06:05.882Z,0.25
2023-01-08T15:08:35.047Z,0.30
2023-01-08T15:11:04.311Z,0.52
2023-01-08T15:13:37.941Z,0.30
2023-01-08T15:16:10.877Z,0.40
2023-01-08T15:18:44.005Z,0.45
2023-01-08T15:21:16.247Z,0.17
2023-01-08T15:23:46.503Z,0.43
2023-01-08T15:26:15.687Z,0.10
2023-01-08T15:28:51.782Z,0.22
2023-01-08T15:31:26.853Z,0.30
2023-01-08T15:33:54.195Z,0.22
2023-01-08T15:36:21.570Z,0.28
2023-01-08T15:38:49.033Z,0.20
2023-01-08T15:41:41.388Z,0.40
2023-01-08T15:44:13.014Z,0.30
2023-01-08T15:46:40.160Z,0.20
2023-01-08T15:49:06.994Z,0.30
2023-01-08T15:51:34.902Z,0.30
2023-01-08T15:54:10.115Z,0.20
2023-01-08T15:56:36.846Z,0.20
2023-01-08T15:59:03.890Z,0.40
2023-01-08T16:01:32.963Z,0.20
2023-01-08T16:04:00.113Z,0.50
2023-01-08T16:06:26.904Z,0.50
2023-01-08T16:08:53.816Z,0.40
2023-01-08T16:11:20.540Z,0.28
2023-01-08T16:13:47.335Z,0.40
2023-01-08T16:16:16.151Z,0.50
2023-01-08T16:18:44.970Z,0.40
2023-01-08T16:21:12.742Z,0.35
2023-01-08T16:23:41.151Z,0.30
2023-01-08T16:26:09.274Z,0.30
2023-01-08T16:28:36.736Z,0.32
2023-01-08T16:31:04.275Z,0.20
2023-01-08T16:33:33.611Z,0.40
2023-01-08T16:36:03.842Z,0.50
2023-01-08T16:38:33.374Z,0.52
2023-01-08T16:41:01.435Z,0.45
2023-01-08T16:43:29.847Z,0.50
2023-01-08T16:46:03.115Z,0.30
2023-01-08T16:48:31.564Z,0.20
2023-01-08T16:51:10.330Z,0.30
2023-01-08T16:53:38.160Z,0.35
2023-01-08T16:56:05.793Z,0.30
2023-01-08T16:58:35.333Z,0.60
2023-01-08T17:01:06.177Z,0.60
2023-01-08T17:03:33.134Z,0.70
2023-01-08T17:06:04.253Z,0.88
2023-01-08T17:08:32.732Z,0.60
2023-01-08T17:10:59.713Z,0.93
2023-01-08T17:13:26.754Z,0.63
2023-01-08T17:15:53.831Z,0.63
2023-01-08T17:18:20.840Z,0.57
2023-01-08T17:20:54.150Z,0.65
2023-01-08T17:23:29.257Z,0.63
2023-01-08T17:26:01.077Z,0.50
2023-01-08T17:28:29.248Z,0.65
2023-01-08T17:31:02.586Z,0.45
2023-01-08T17:33:29.672Z,0.43
2023-01-08T17:35:58.406Z,0.40
2023-01-08T17:38:25.596Z,0.60
2023-01-08T17:40:53.150Z,0.30
2023-01-08T17:43:27.188Z,0.40
2023-01-08T17:45:56.497Z,0.50
2023-01-08T17:48:23.473Z,0.60
2023-01-08T17:50:51.771Z,0.40
2023-01-08T17:53:19.863Z,0.30
2023-01-08T17:55:47.163Z,0.40
2023-01-08T17:58:14.267Z,0.38
2023-01-08T18:00:42.893Z,0.38
2023-01-08T18:03:10.165Z,0.30
2023-01-08T18:05:38.204Z,0.40
2023-01-08T18:08:05.886Z,0.40
2023-01-08T18:10:33.148Z,0.30
2023-01-08T18:13:02.690Z,0.20
2023-01-08T18:15:29.792Z,0.47
2023-01-08T18:17:58.120Z,0.20
2023-01-08T18:20:25.546Z,0.20
2023-01-08T18:23:11.514Z,0.20
2023-01-08T18:25:42.712Z,0.60
2023-01-08T18:28:11.084Z,0.32
2023-01-08T18:30:38.457Z,0.20
2023-01-08T18:33:06.792Z,0.35
2023-01-08T18:35:33.937Z,0.70
2023-01-08T18:38:00.968Z,0.40
2023-01-08T18:40:31.831Z,0.30
2023-01-08T18:42:58.810Z,0.38
2023-01-08T18:45:26.116Z,0.30
2023-01-08T18:47:54.766Z,0.40
2023-01-08T18:50:24.256Z,0.50
2023-01-08T18:52:51.580Z,0.30
2023-01-08T18:55:18.641Z,0.30
2023-01-08T18:57:45.701Z,0.40
2023-01-08T19:00:13.778Z,0.40
2023-01-08T19:02:41.342Z,0.38
2023-01-08T19:05:09.170Z,0.35
2023-01-08T19:07:38.549Z,0.30
2023-01-08T19:10:06.155Z,0.20
2023-01-08T19:12:35.277Z,0.30
2023-01-08T19:15:03.953Z,0.38
2023-01-08T19:17:32.243Z,0.30
2023-01-08T19:19:59.790Z,0.40
2023-01-08T19:22:27.539Z,0.30
2023-01-08T19:24:57.108Z,0.43
2023-01-08T19:27:24.884Z,0.30
2023-01-08T19:29:52.658Z,0.50
2023-01-08T19:32:19.954Z,0.17
2023-01-08T19:34:47.596Z,0.40
2023-01-08T19:37:15.091Z,0.40
2023-01-08T19:39:42.086Z,0.30
2023-01-08T19:42:30.710Z,0.60
2023-01-08T19:44:57.522Z,0.50
2023-01-08T19:47:24.398Z,0.43
2023-01-08T19:49:51.362Z,0.55
2023-01-08T19:52:18.815Z,0.45
2023-01-08T19:54:45.983Z,0.40
2023-01-08T19:57:14.226Z,0.60
2023-01-08T19:59:41.213Z,0.40
2023-01-08T20:02:09.223Z,0.43
2023-01-08T20:04:43.813Z,0.50
2023-01-08T20:07:14.218Z,0.63
2023-01-08T20:09:42.316Z,0.30
2023-01-08T20:12:09.773Z,0.77
2023-01-08T20:14:37.980Z,0.60
2023-01-08T20:17:04.762Z,0.43
2023-01-08T20:19:31.667Z,0.40
2023-01-08T20:21:58.952Z,0.22
2023-01-08T20:24:25.930Z,0.47
2023-01-08T20:26:52.658Z,0.40
2023-01-08T20:29:19.568Z,0.40
2023-01-08T20:31:49.969Z,0.63
2023-01-08T20:34:17.066Z,0.40
2023-01-08T20:36:45.417Z,0.70
2023-01-08T20:39:14.519Z,0.40
2023-01-08T20:41:46.593Z,0.60
2023-01-08T20:44:22.596Z,0.43
2023-01-08T20:46:50.742Z,0.73
2023-01-08T20:49:20.456Z,0.68
2023-01-08T20:51:58.009Z,0.60
2023-01-08T20:54:25.896Z,0.80
2023-01-08T20:56:55.243Z,0.60
2023-01-08T20:59:24.006Z,0.57
2023-01-08T21:01:52.560Z,0.50
2023-01-08T21:04:19.969Z,0.43
2023-01-08T21:06:46.693Z,0.52
2023-01-08T21:09:16.175Z,0.47
2023-01-08T21:11:42.999Z,0.52
2023-01-08T21:14:10.993Z,0.35
2023-01-08T21:16:40.537Z,0.60
2023-01-08T21:19:10.446Z,0.30
2023-01-08T21:21:40.192Z,0.30
2023-01-08T21:24:09.386Z,0.50
2023-01-08T21:26:37.434Z,0.50
2023-01-08T21:29:08.143Z,0.40
2023-01-08T21:31:35.445Z,0.70
2023-01-08T21:34:03.582Z,0.90
2023-01-08T21:36:32.191Z,0.50
2023-01-08T21:39:01.002Z,0.73
2023-01-08T21:41:47.961Z,0.20
2023-01-08T21:44:35.553Z,0.45
2023-01-08T21:47:03.824Z,0.60
2023-01-08T21:49:32.022Z,0.50
2023-01-08T21:52:18.452Z,0.40
2023-01-08T21:54:45.295Z,0.95
2023-01-08T21:57:11.969Z,0.30
2023-01-08T21:59:38.870Z,0.40
2023-01-08T22:02:06.318Z,0.55
2023-01-08T22:04:33.752Z,0.30
2023-01-08T22:07:02.547Z,0.30
2023-01-08T22:09:29.323Z,0.40
2023-01-08T22:11:56.181Z,0.40
2023-01-08T22:14:23.305Z,0.30
2023-01-08T22:16:50.334Z,0.55
2023-01-08T22:19:17.284Z,0.30
2023-01-08T22:21:44.234Z,0.30
2023-01-08T22:24:12.546Z,0.30
2023-01-08T22:26:39.235Z,0.28
2023-01-08T22:29:06.663Z,0.30
2023-01-08T22:31:34.028Z,0.20
2023-01-08T22:34:01.158Z,0.30
2023-01-08T22:36:27.962Z,0.30
2023-01-08T22:38:54.774Z,0.40
2023-01-08T22:41:24.437Z,0.50
2023-01-08T22:43:53.371Z,0.30
2023-01-08T22:46:20.169Z,0.20
2023-01-08T22:48:46.961Z,0.30
2023-01-08T22:51:13.647Z,0.30
2023-01-08T22:53:40.504Z,0.40
2023-01-08T22:56:14.412Z,0.30
2023-01-08T22:58:45.351Z,0.30
2023-01-08T23:01:14.254Z,0.28
2023-01-08T23:03:43.010Z,0.45
2023-01-08T23:06:11.517Z,0.40
2023-01-08T23:08:40.346Z,0.20
2023-01-08T23:11:08.679Z,0.45
2023-01-08T23:13:37.706Z,0.40
2023-01-08T23:16:07.852Z,0.20
2023-01-08T23:18:35.828Z,0.40
2023-01-08T23:21:04.389Z,0.30
2023-01-08T23:23:31.222Z,0.45
2023-01-08T23:26:03.292Z,0.40
2023-01-08T23:28:30.095Z,0.50
2023-01-08T23:30:56.845Z,0.35
2023-01-08T23:33:25.140Z,0.40
2023-01-08T23:35:52.202Z,0.40
2023-01-08T23:38:19.090Z,0.30
2023-01-08T23:40:45.930Z,0.38
2023-01-08T23:43:12.725Z,0.30
2023-01-08T23:45:39.547Z,0.55
2023-01-08T23:48:07.657Z,0.52
2023-01-08T23:50:36.413Z,0.70
2023-01-08T23:53:03.311Z,0.50
2023-01-08T23:55:33.159Z,0.47
2023-01-08T23:57:59.953Z,0.32
